Time;durP1;ratioP1;P1;durP2;ratioP2;P2;SDS_P1;SDS_P2;PMS_P1;PMS_P2;Temp;Humidity;BMP_temperature;BMP_pressure;BME280_temperature;BME280_humidity;BME280_pressure;Samples;Min_cycle;Max_cycle;Signal;HPM_P1;HPM_P2
2023/12/25 00:01:27;;;;;;;0.00;0.00;;;14.20;81.20;;;;;;5085181;28;20211;-41
2023/12/25 00:03:56;;;;;;;0.00;0.00;;;14.20;81.10;;;;;;5084852;28;20207;-40
2023/12/25 00:06:26;;;;;;;0.00;0.00;;;14.20;81.10;;;;;;5066757;28;20227;-41
2023/12/25 00:08:56;;;;;;;0.00;0.00;;;14.20;81.20;;;;;;5082139;28;20214;-40
2023/12/25 00:11:27;;;;;;;0.00;0.00;;;14.20;81.10;;;;;;5084195;28;20199;-40
2023/12/25 00:13:55;;;;;;;0.00;0.00;;;14.20;81.10;;;;;;5086482;28;20199;-40
2023/12/25 00:16:26;;;;;;;0.00;0.00;;;14.20;81.10;;;;;;5082377;28;20271;-42
2023/12/25 00:18:55;;;;;;;0.00;0.00;;;14.20;81.20;;;;;;5087725;28;20223;-40
2023/12/25 00:21:26;;;;;;;0.00;0.00;;;14.20;81.20;;;;;;5087250;28;20199;-41
2023/12/25 00:23:56;;;;;;;0.00;0.00;;;14.20;81.20;;;;;;5082194;28;20203;-41
2023/12/25 00:26:26;;;;;;;0.00;0.00;;;14.20;81.30;;;;;;5081491;28;20306;-40
2023/12/25 00:28:55;;;;;;;0.00;0.00;;;14.20;81.20;;;;;;5067515;28;20263;-41
2023/12/25 00:31:22;;;;;;;0.00;0.00;;;14.20;81.20;;;;;;5081213;28;20222;-41
2023/12/25 00:33:50;;;;;;;0.00;0.00;;;14.20;81.20;;;;;;5086102;28;20191;-40
2023/12/25 00:36:19;;;;;;;0.00;0.00;;;14.20;81.20;;;;;;5067755;28;20208;-41
2023/12/25 00:38:46;;;;;;;0.00;0.00;;;14.20;81.20;;;;;;5061028;28;20218;-41
2023/12/25 00:41:14;;;;;;;0.00;0.00;;;14.20;81.20;;;;;;5081763;28;20199;-41
2023/12/25 00:43:41;;;;;;;0.00;0.00;;;14.20;81.20;;;;;;5084190;28;20223;-41
2023/12/25 00:46:08;;;;;;;0.00;0.00;;;14.20;81.30;;;;;;5083107;28;20203;-41
2023/12/25 00:48:36;;;;;;;0.00;0.00;;;14.20;81.20;;;;;;5084683;28;20242;-41
2023/12/25 00:51:04;;;;;;;0.00;0.00;;;14.20;81.30;;;;;;5086147;28;20195;-42
2023/12/25 00:53:33;;;;;;;0.00;0.00;;;14.20;81.20;;;;;;5089046;28;20757;-41
2023/12/25 00:56:04;;;;;;;0.00;0.00;;;14.20;81.30;;;;;;5069123;28;20276;-42
2023/12/25 00:58:31;;;;;;;0.00;0.00;;;14.20;81.20;;;;;;5087427;28;20206;-41
2023/12/25 01:01:01;;;;;;;0.00;0.00;;;14.20;81.30;;;;;;5086970;28;20251;-40
2023/12/25 01:03:28;;;;;;;0.00;0.00;;;14.20;81.30;;;;;;5088220;28;20294;-41
2023/12/25 01:05:58;;;;;;;0.00;0.00;;;14.20;81.30;;;;;;5089491;28;20258;-41
2023/12/25 01:08:25;;;;;;;0.00;0.00;;;14.20;81.20;;;;;;5088030;28;20234;-41
2023/12/25 01:10:52;;;;;;;0.00;0.00;;;14.20;81.20;;;;;;5089949;28;20213;-41
2023/12/25 01:13:24;;;;;;;0.00;0.00;;;14.20;81.20;;;;;;5089410;28;20327;-41
2023/12/25 01:15:56;;;;;;;0.00;0.00;;;14.20;81.30;;;;;;5089563;28;20195;-41
2023/12/25 01:18:26;;;;;;;0.00;0.00;;;14.20;81.30;;;;;;5089164;28;20203;-41
2023/12/25 01:20:55;;;;;;;0.00;0.00;;;14.20;81.30;;;;;;5087362;28;20218;-41
2023/12/25 01:23:27;;;;;;;0.00;0.00;;;14.20;81.30;;;;;;5086570;28;20689;-40
2023/12/25 01:25:59;;;;;;;0.00;0.00;;;14.20;81.30;;;;;;5085907;28;20230;-41
2023/12/25 01:28:28;;;;;;;0.00;0.00;;;14.20;81.30;;;;;;5086440;28;20218;-40
2023/12/25 01:30:58;;;;;;;0.00;0.00;;;14.20;81.40;;;;;;5086154;28;20210;-40
2023/12/25 01:33:25;;;;;;;0.00;0.00;;;14.20;81.30;;;;;;5089329;28;20214;-41
2023/12/25 01:35:53;;;;;;;0.00;0.00;;;14.20;81.20;;;;;;5088819;28;20194;-41
2023/12/25 01:38:20;;;;;;;0.00;0.00;;;14.20;81.20;;;;;;5088923;28;20621;-41
2023/12/25 01:40:49;;;;;;;0.00;0.00;;;14.20;81.30;;;;;;5085382;28;20215;-41
2023/12/25 01:43:21;;;;;;;0.00;0.00;;;14.20;81.20;;;;;;5085777;28;20194;-40
2023/12/25 01:45:49;;;;;;;0.00;0.00;;;14.20;81.30;;;;;;5086740;28;20639;-41
2023/12/25 01:48:16;;;;;;;0.00;0.00;;;14.20;81.30;;;;;;5087287;28;20705;-41
2023/12/25 01:50:49;;;;;;;0.00;0.00;;;14.20;81.20;;;;;;5085494;28;20199;-41
2023/12/25 01:53:21;;;;;;;0.00;0.00;;;14.20;81.20;;;;;;5084848;28;20283;-41
2023/12/25 01:55:49;;;;;;;0.00;0.00;;;14.20;81.20;;;;;;5086193;28;20854;-41
2023/12/25 01:58:16;;;;;;;0.00;0.00;;;14.20;81.20;;;;;;5080272;28;20746;-41
2023/12/25 02:00:45;;;;;;;0.00;0.00;;;14.20;81.20;;;;;;5067561;28;20290;-42
2023/12/25 02:03:13;;;;;;;0.00;0.00;;;14.20;81.20;;;;;;5066612;28;20199;-40
2023/12/25 02:05:40;;;;;;;0.00;0.00;;;14.20;81.30;;;;;;5058694;28;20618;-41
2023/12/25 02:08:13;;;;;;;0.00;0.00;;;14.20;81.30;;;;;;5073458;28;20657;-41
2023/12/25 02:10:43;;;;;;;0.00;0.00;;;14.20;81.30;;;;;;5067978;28;20608;-40
2023/12/25 02:13:10;;;;;;;0.00;0.00;;;14.20;81.30;;;;;;5061835;28;20212;-40
2023/12/25 02:15:39;;;;;;;0.00;0.00;;;14.20;81.30;;;;;;5071160;28;20210;-41
2023/12/25 02:18:09;;;;;;;0.00;0.00;;;14.20;81.40;;;;;;5073526;28;20198;-40
2023/12/25 02:20:39;;;;;;;0.00;0.00;;;14.20;81.40;;;;;;5078809;28;21181;-41
2023/12/25 02:23:10;;;;;;;0.00;0.00;;;14.20;81.40;;;;;;5071272;28;20215;-40
2023/12/25 02:26:01;;;;;;;0.00;0.00;;;14.20;81.30;;;;;;5071646;28;20554;-40
2023/12/25 02:28:30;;;;;;;0.00;0.00;;;14.20;81.50;;;;;;5079509;28;20229;-41
2023/12/25 02:31:00;;;;;;;0.00;0.00;;;14.10;81.30;;;;;;5086989;28;20215;-41
2023/12/25 02:33:32;;;;;;;0.00;0.00;;;14.10;81.30;;;;;;5086551;28;20222;-41
2023/12/25 02:36:00;;;;;;;0.00;0.00;;;14.10;81.40;;;;;;5087726;28;20199;-40
2023/12/25 02:38:30;;;;;;;0.00;0.00;;;14.10;81.40;;;;;;5084652;28;20215;-40
2023/12/25 02:40:57;;;;;;;0.00;0.00;;;14.10;81.50;;;;;;5084739;28;20326;-41
2023/12/25 02:43:25;;;;;;;0.00;0.00;;;14.10;81.40;;;;;;5084691;28;20330;-41
2023/12/25 02:45:52;;;;;;;0.00;0.00;;;14.20;81.60;;;;;;5087083;28;20207;-41
2023/12/25 02:48:19;;;;;;;0.00;0.00;;;14.20;81.50;;;;;;5087418;28;20227;-41
2023/12/25 02:50:49;;;;;;;0.00;0.00;;;14.10;81.40;;;;;;5089200;28;20199;-41
2023/12/25 02:53:21;;;;;;;0.00;0.00;;;14.10;81.40;;;;;;5088023;28;20292;-40
2023/12/25 02:55:49;;;;;;;0.00;0.00;;;14.10;81.40;;;;;;5085793;28;20777;-41
2023/12/25 02:58:16;;;;;;;0.00;0.00;;;14.10;81.40;;;;;;5083888;28;20271;-41
2023/12/25 03:00:43;;;;;;;0.00;0.00;;;14.10;81.40;;;;;;5082474;28;20649;-40
2023/12/25 03:03:10;;;;;;;0.00;0.00;;;14.10;81.40;;;;;;5064964;28;20257;-40
2023/12/25 03:05:43;;;;;;;0.00;0.00;;;14.10;81.40;;;;;;5067119;28;20614;-41
2023/12/25 03:08:10;;;;;;;0.00;0.00;;;14.10;81.50;;;;;;5067437;28;20281;-41
2023/12/25 03:10:41;;;;;;;0.00;0.00;;;14.10;81.50;;;;;;5072396;28;20211;-41
2023/12/25 03:13:13;;;;;;;0.00;0.00;;;14.10;81.50;;;;;;5088429;28;20211;-40
2023/12/25 03:15:44;;;;;;;0.00;0.00;;;14.10;81.60;;;;;;5103060;28;20689;-41
2023/12/25 03:18:12;;;;;;;0.00;0.00;;;14.10;81.50;;;;;;5088220;28;20650;-41
2023/12/25 03:20:39;;;;;;;0.00;0.00;;;14.10;81.50;;;;;;5086445;28;20194;-41
2023/12/25 03:23:07;;;;;;;0.00;0.00;;;14.10;81.50;;;;;;5086947;28;20205;-23
2023/12/25 03:25:36;;;;;;;0.00;0.00;;;14.10;81.50;;;;;;5087996;28;20221;-23
2023/12/25 03:28:05;;;;;;;0.00;0.00;;;14.10;81.40;;;;;;5088893;28;20214;-24
2023/12/25 03:30:35;;;;;;;0.00;0.00;;;14.10;81.40;;;;;;5086754;28;21022;-24
2023/12/25 03:33:04;;;;;;;0.00;0.00;;;14.10;81.50;;;;;;5085254;28;20589;-24
2023/12/25 03:35:32;;;;;;;0.00;0.00;;;14.10;81.40;;;;;;5085531;28;20707;-24
2023/12/25 03:38:02;;;;;;;0.00;0.00;;;14.10;81.40;;;;;;5068419;28;20247;-24
2023/12/25 03:40:29;;;;;;;0.00;0.00;;;14.10;81.50;;;;;;5086485;28;20293;-24
2023/12/25 03:43:03;;;;;;;0.00;0.00;;;14.10;81.40;;;;;;5082965;28;20195;-24
2023/12/25 03:45:30;;;;;;;0.00;0.00;;;14.10;81.40;;;;;;5065608;28;20215;-24
2023/12/25 03:47:57;;;;;;;0.00;0.00;;;14.10;81.40;;;;;;5083879;28;20227;-23
2023/12/25 03:50:25;;;;;;;0.00;0.00;;;14.10;81.50;;;;;;5084783;28;20218;-24
2023/12/25 03:52:52;;;;;;;0.00;0.00;;;14.10;81.50;;;;;;5083915;28;20195;-24
2023/12/25 03:55:20;;;;;;;0.00;0.00;;;14.10;81.50;;;;;;5083822;28;20417;-24
2023/12/25 03:57:51;;;;;;;0.00;0.00;;;14.10;81.60;;;;;;5085170;28;20214;-24
2023/12/25 04:00:21;;;;;;;0.00;0.00;;;14.10;81.50;;;;;;5086102;28;20196;-24
2023/12/25 04:02:51;;;;;;;0.00;0.00;;;14.10;81.50;;;;;;5086420;28;20194;-24
2023/12/25 04:05:18;;;;;;;0.00;0.00;;;14.00;81.50;;;;;;5085116;28;20231;-24
2023/12/25 04:07:46;;;;;;;0.00;0.00;;;14.00;81.50;;;;;;5086691;28;20199;-24
2023/12/25 04:10:13;;;;;;;0.00;0.00;;;14.00;81.50;;;;;;5086591;28;20199;-24
2023/12/25 04:12:40;;;;;;;0.00;0.00;;;14.00;81.60;;;;;;5086484;28;20217;-24
2023/12/25 04:15:08;;;;;;;0.00;0.00;;;14.10;81.60;;;;;;5086016;28;20207;-24
2023/12/25 04:17:37;;;;;;;0.00;0.00;;;14.10;81.60;;;;;;5087057;28;20198;-24
2023/12/25 04:20:08;;;;;;;0.00;0.00;;;14.10;81.60;;;;;;5087081;28;20203;-24
2023/12/25 04:22:37;;;;;;;0.00;0.00;;;14.00;81.60;;;;;;5086895;28;20211;-24
2023/12/25 04:25:07;;;;;;;0.00;0.00;;;14.10;81.60;;;;;;5085681;28;20206;-25
2023/12/25 04:27:37;;;;;;;0.00;0.00;;;14.10;81.70;;;;;;5086315;28;20213;-24
2023/12/25 04:30:07;;;;;;;0.00;0.00;;;14.10;81.60;;;;;;5083714;28;20226;-24
2023/12/25 04:32:40;;;;;;;0.00;0.00;;;14.00;81.50;;;;;;5087092;28;20195;-24
2023/12/25 04:35:07;;;;;;;0.00;0.00;;;14.00;81.50;;;;;;5086869;28;20268;-24
2023/12/25 04:37:34;;;;;;;0.00;0.00;;;14.00;81.50;;;;;;5087592;28;20191;-24
2023/12/25 04:40:02;;;;;;;0.00;0.00;;;14.00;81.50;;;;;;5085913;28;20754;-24
2023/12/25 04:42:29;;;;;;;0.00;0.00;;;14.00;81.60;;;;;;5083967;28;20234;-24
2023/12/25 04:44:56;;;;;;;0.00;0.00;;;14.00;81.50;;;;;;5082556;28;20978;-24
2023/12/25 04:47:24;;;;;;;0.00;0.00;;;14.00;81.60;;;;;;5083388;28;20205;-24
2023/12/25 04:49:56;;;;;;;0.00;0.00;;;14.00;81.60;;;;;;5083605;28;20218;-24
2023/12/25 04:52:25;;;;;;;0.00;0.00;;;14.00;81.60;;;;;;5084855;28;20230;-24
2023/12/25 04:54:54;;;;;;;0.00;0.00;;;14.00;81.60;;;;;;5086868;28;20276;-24
2023/12/25 04:57:22;;;;;;;0.00;0.00;;;14.00;81.70;;;;;;5069419;28;20306;-24
2023/12/25 04:59:49;;;;;;;0.00;0.00;;;14.00;81.70;;;;;;5084532;28;20631;-24
2023/12/25 05:02:21;;;;;;;0.00;0.00;;;14.00;81.60;;;;;;5082166;28;20313;-24
2023/12/25 05:04:51;;;;;;;0.00;0.00;;;14.00;81.60;;;;;;5086183;28;20277;-24
2023/12/25 05:07:20;;;;;;;0.00;0.00;;;14.00;81.70;;;;;;5078601;28;20199;-24
2023/12/25 05:09:47;;;;;;;0.00;0.00;;;14.00;81.70;;;;;;5086658;28;20227;-24
2023/12/25 05:12:19;;;;;;;0.00;0.00;;;14.00;81.60;;;;;;5084973;28;20971;-24
2023/12/25 05:14:51;;;;;;;0.00;0.00;;;14.00;81.70;;;;;;5085699;28;20211;-24
2023/12/25 05:17:21;;;;;;;0.00;0.00;;;14.00;81.60;;;;;;5084504;28;20802;-23
2023/12/25 05:19:51;;;;;;;0.00;0.00;;;14.00;81.60;;;;;;5048805;28;20633;-24
2023/12/25 05:22:18;;;;;;;0.00;0.00;;;14.00;81.60;;;;;;5065729;28;20549;-24
2023/12/25 05:24:45;;;;;;;0.00;0.00;;;14.00;81.60;;;;;;5083653;28;20609;-24
2023/12/25 05:27:15;;;;;;;0.00;0.00;;;14.00;81.80;;;;;;5083304;28;20210;-24
2023/12/25 05:29:47;;;;;;;0.00;0.00;;;14.00;81.60;;;;;;5083605;28;20211;-24
2023/12/25 05:32:18;;;;;;;0.00;0.00;;;14.00;81.60;;;;;;5080897;28;20215;-24
2023/12/25 05:34:50;;;;;;;0.00;0.00;;;14.00;81.60;;;;;;5083160;28;20282;-24
2023/12/25 05:37:22;;;;;;;0.00;0.00;;;13.90;81.60;;;;;;5068638;28;20250;-24
2023/12/25 05:39:49;;;;;;;0.00;0.00;;;13.90;81.60;;;;;;5089101;28;20585;-24
2023/12/25 05:42:21;;;;;;;0.00;0.00;;;13.90;81.60;;;;;;5090553;28;20199;-24
2023/12/25 05:44:50;;;;;;;0.00;0.00;;;13.90;81.60;;;;;;5070891;28;20210;-24
2023/12/25 05:47:17;;;;;;;0.00;0.00;;;13.90;81.70;;;;;;5084611;28;20202;-24
2023/12/25 05:49:45;;;;;;;0.00;0.00;;;13.90;81.70;;;;;;5090104;28;20215;-24
2023/12/25 05:52:17;;;;;;;0.00;0.00;;;13.90;81.70;;;;;;5072365;28;20201;-24
2023/12/25 05:54:44;;;;;;;0.00;0.00;;;13.90;81.70;;;;;;5088830;28;20201;-24
2023/12/25 05:57:11;;;;;;;0.00;0.00;;;13.90;81.70;;;;;;5074369;28;20195;-24
2023/12/25 05:59:41;;;;;;;0.00;0.00;;;13.90;81.80;;;;;;5068441;28;20692;-24
2023/12/25 06:02:11;;;;;;;0.00;0.00;;;13.90;81.90;;;;;;5073979;28;20542;-24
2023/12/25 06:04:40;;;;;;;0.00;0.00;;;13.90;81.90;;;;;;5069867;28;20204;-24
2023/12/25 06:07:11;;;;;;;0.00;0.00;;;13.90;81.80;;;;;;5074359;28;20248;-24
2023/12/25 06:09:38;;;;;;;0.00;0.00;;;13.90;81.80;;;;;;5070359;28;20215;-24
2023/12/25 06:12:08;;;;;;;0.00;0.00;;;13.90;82.50;;;;;;5083905;28;20290;-24
2023/12/25 06:14:36;;;;;;;0.00;0.00;;;13.90;81.80;;;;;;5082120;28;20211;-23
2023/12/25 06:17:04;;;;;;;0.00;0.00;;;13.90;81.90;;;;;;5083616;28;20199;-23
2023/12/25 06:19:31;;;;;;;0.00;0.00;;;13.90;81.70;;;;;;5085795;28;20656;-24
2023/12/25 06:21:58;;;;;;;0.00;0.00;;;13.90;81.70;;;;;;5086103;28;20645;-24
2023/12/25 06:24:28;;;;;;;0.00;0.00;;;13.90;81.80;;;;;;5087301;28;20207;-24
2023/12/25 06:27:00;;;;;;;0.00;0.00;;;13.90;81.90;;;;;;5079874;28;20214;-24
2023/12/25 06:29:32;;;;;;;0.00;0.00;;;13.90;81.90;;;;;;5059085;28;20219;-23
2023/12/25 06:32:04;;;;;;;0.00;0.00;;;13.90;81.90;;;;;;5066278;28;20294;-23
2023/12/25 06:34:34;;;;;;;0.00;0.00;;;13.90;82.00;;;;;;5065987;28;20260;-24
2023/12/25 06:37:01;;;;;;;0.00;0.00;;;13.90;82.00;;;;;;5070220;28;20297;-23
2023/12/25 06:39:31;;;;;;;0.00;0.00;;;13.90;81.90;;;;;;5079506;28;20590;-24
2023/12/25 06:41:58;;;;;;;0.00;0.00;;;13.90;81.90;;;;;;5065958;28;20302;-24
2023/12/25 06:44:30;;;;;;;0.00;0.00;;;13.90;81.90;;;;;;5069254;28;20211;-23
2023/12/25 06:47:02;;;;;;;0.00;0.00;;;13.90;82.00;;;;;;5067683;28;20215;-24
2023/12/25 06:49:34;;;;;;;0.00;0.00;;;13.90;82.00;;;;;;5070008;28;20305;-24
2023/12/25 06:52:04;;;;;;;0.00;0.00;;;13.90;82.00;;;;;;5066908;28;20203;-24
2023/12/25 06:54:34;;;;;;;0.00;0.00;;;13.90;82.00;;;;;;5069302;28;20217;-23
2023/12/25 06:57:06;;;;;;;0.00;0.00;;;13.90;81.90;;;;;;5085665;28;20203;-24
2023/12/25 06:59:33;;;;;;;0.00;0.00;;;14.00;82.10;;;;;;5085806;28;20276;-24
2023/12/25 07:02:00;;;;;;;0.00;0.00;;;14.00;82.10;;;;;;5085411;28;20203;-24
2023/12/25 07:04:30;;;;;;;0.00;0.00;;;14.00;82.10;;;;;;5085605;28;20198;-24
2023/12/25 07:06:59;;;;;;;0.00;0.00;;;14.00;82.00;;;;;;5085354;28;20203;-24
2023/12/25 07:09:29;;;;;;;0.00;0.00;;;14.00;82.00;;;;;;5073776;28;20696;-24
2023/12/25 07:11:59;;;;;;;0.00;0.00;;;14.00;82.00;;;;;;5073911;28;20462;-24
2023/12/25 07:14:26;;;;;;;0.00;0.00;;;14.00;82.00;;;;;;5078695;28;20265;-24
2023/12/25 07:16:55;;;;;;;0.00;0.00;;;14.00;82.10;;;;;;5069491;28;20294;-24
2023/12/25 07:19:22;;;;;;;0.00;0.00;;;14.00;82.10;;;;;;5079645;28;20296;-24
2023/12/25 07:21:52;;;;;;;0.00;0.00;;;14.00;82.10;;;;;;5080827;28;20680;-24
2023/12/25 07:24:20;;;;;;;0.00;0.00;;;14.00;82.10;;;;;;5079459;28;20215;-24
2023/12/25 07:26:50;;;;;;;0.00;0.00;;;14.00;82.10;;;;;;5083790;28;20207;-24
2023/12/25 07:29:17;;;;;;;0.00;0.00;;;14.00;82.10;;;;;;5084017;28;20230;-24
2023/12/25 07:31:44;;;;;;;0.00;0.00;;;14.00;82.10;;;;;;5073007;28;20700;-24
2023/12/25 07:34:14;;;;;;;0.00;0.00;;;14.00;82.20;;;;;;5071091;28;20206;-24
2023/12/25 07:36:43;;;;;;;0.00;0.00;;;14.00;82.10;;;;;;5083732;28;20669;-24
2023/12/25 07:39:12;;;;;;;0.00;0.00;;;14.00;82.00;;;;;;5077363;28;20430;-24
2023/12/25 07:41:45;;;;;;;0.00;0.00;;;14.00;82.10;;;;;;5080468;28;20238;-24
2023/12/25 07:44:16;;;;;;;0.00;0.00;;;14.00;82.10;;;;;;5069431;28;20220;-24
2023/12/25 07:46:43;;;;;;;0.00;0.00;;;14.00;82.10;;;;;;5081201;28;20688;-24
2023/12/25 07:49:17;;;;;;;0.00;0.00;;;14.00;82.20;;;;;;5084030;28;20587;-24
2023/12/25 07:51:49;;;;;;;0.00;0.00;;;14.00;82.20;;;;;;5084512;28;20199;-24
2023/12/25 07:54:19;;;;;;;0.00;0.00;;;14.00;82.20;;;;;;5081965;28;20206;-24
2023/12/25 07:56:48;;;;;;;0.00;0.00;;;14.00;82.20;;;;;;5076495;28;20206;-23
2023/12/25 07:59:20;;;;;;;0.00;0.00;;;14.00;82.30;;;;;;5082565;28;20213;-23
2023/12/25 08:01:47;;;;;;;0.00;0.00;;;14.00;82.30;;;;;;5078982;28;20207;-23
2023/12/25 08:04:14;;;;;;;0.00;0.00;;;14.00;82.30;;;;;;5095100;28;20214;-24
2023/12/25 08:06:45;;;;;;;0.00;0.00;;;14.00;82.20;;;;;;5083478;28;20765;-23
2023/12/25 08:09:16;;;;;;;0.00;0.00;;;14.00;82.20;;;;;;5082454;28;20203;-24
2023/12/25 08:11:50;;;;;;;0.00;0.00;;;14.00;82.30;;;;;;5081384;28;20207;-24
2023/12/25 08:14:22;;;;;;;0.00;0.00;;;14.00;82.30;;;;;;5074342;28;20202;-24
2023/12/25 08:16:52;;;;;;;0.00;0.00;;;14.00;82.30;;;;;;5081747;28;20206;-24
2023/12/25 08:19:19;;;;;;;0.00;0.00;;;14.10;82.40;;;;;;5079834;28;20746;-24
2023/12/25 08:21:48;;;;;;;0.00;0.00;;;14.10;82.30;;;;;;5080562;28;20704;-24
2023/12/25 08:24:16;;;;;;;0.00;0.00;;;14.10;82.40;;;;;;5085459;28;20283;-24
2023/12/25 08:26:43;;;;;;;0.00;0.00;;;14.10;82.30;;;;;;5082327;28;20203;-24
2023/12/25 08:29:12;;;;;;;0.00;0.00;;;14.10;82.30;;;;;;5085972;28;20241;-24
2023/12/25 08:31:42;;;;;;;0.00;0.00;;;14.10;82.40;;;;;;5081023;28;20203;-24
2023/12/25 08:34:13;;;;;;;0.00;0.00;;;14.10;82.40;;;;;;5081702;28;20221;-24
2023/12/25 08:36:41;;;;;;;0.00;0.00;;;14.10;82.40;;;;;;5050205;28;20206;-24
2023/12/25 08:39:08;;;;;;;0.00;0.00;;;14.10;82.50;;;;;;5085614;28;20228;-24
2023/12/25 08:41:35;;;;;;;0.00;0.00;;;14.10;82.50;;;;;;5086292;28;20290;-24
2023/12/25 08:44:03;;;;;;;0.00;0.00;;;14.10;82.50;;;;;;5087188;28;20210;-24
2023/12/25 08:46:30;;;;;;;0.00;0.00;;;14.10;82.50;;;;;;5078600;28;20222;-24
2023/12/25 08:48:59;;;;;;;0.00;0.00;;;14.10;82.50;;;;;;5077268;28;20210;-24
2023/12/25 08:51:27;;;;;;;0.00;0.00;;;14.10;82.50;;;;;;5085316;28;20203;-24
2023/12/25 08:53:56;;;;;;;0.00;0.00;;;14.10;82.50;;;;;;5083001;28;20564;-24
2023/12/25 08:56:26;;;;;;;0.00;0.00;;;14.10;82.50;;;;;;5083640;28;20205;-24
2023/12/25 08:59:01;;;;;;;0.00;0.00;;;14.10;82.40;;;;;;5086932;28;20760;-24
2023/12/25 09:01:32;;;;;;;0.00;0.00;;;14.10;82.50;;;;;;5085728;28;20202;-24
2023/12/25 09:04:01;;;;;;;0.00;0.00;;;14.20;82.50;;;;;;5068738;28;20207;-24
2023/12/25 09:06:29;;;;;;;0.00;0.00;;;14.20;82.50;;;;;;5082986;28;20349;-24
2023/12/25 09:09:00;;;;;;;0.00;0.00;;;14.20;82.60;;;;;;5084908;28;20616;-24
2023/12/25 09:11:28;;;;;;;0.00;0.00;;;14.20;82.50;;;;;;5086738;28;20203;-24
2023/12/25 09:13:59;;;;;;;0.00;0.00;;;14.20;82.60;;;;;;5088798;28;20203;-24
2023/12/25 09:16:28;;;;;;;0.00;0.00;;;14.20;82.50;;;;;;5089304;28;20207;-24
2023/12/25 09:18:58;;;;;;;0.00;0.00;;;14.20;82.60;;;;;;5090687;28;20203;-24
2023/12/25 09:21:25;;;;;;;0.00;0.00;;;14.20;82.50;;;;;;5091014;28;20211;-24
2023/12/25 09:23:55;;;;;;;0.00;0.00;;;14.20;82.60;;;;;;5087998;28;20579;-24
2023/12/25 09:26:22;;;;;;;0.00;0.00;;;14.20;82.60;;;;;;5089759;28;20199;-24
2023/12/25 09:28:51;;;;;;;0.00;0.00;;;14.20;82.60;;;;;;5089461;28;20223;-23
2023/12/25 09:31:21;;;;;;;0.00;0.00;;;14.20;82.70;;;;;;5086191;28;20223;-24
2023/12/25 09:33:51;;;;;;;0.00;0.00;;;14.20;82.60;;;;;;5086485;28;20246;-23
2023/12/25 09:36:24;;;;;;;0.00;0.00;;;14.20;82.60;;;;;;5085335;28;20195;-24
2023/12/25 09:38:53;;;;;;;0.00;0.00;;;14.20;82.70;;;;;;5084706;28;20199;-23
2023/12/25 09:41:23;;;;;;;0.00;0.00;;;14.20;83.50;;;;;;5069781;28;20276;-24
2023/12/25 09:43:53;;;;;;;0.00;0.00;;;14.20;82.70;;;;;;5080286;28;20195;-24
2023/12/25 09:46:23;;;;;;;0.00;0.00;;;14.20;82.60;;;;;;5085671;28;20268;-24
2023/12/25 09:48:57;;;;;;;0.00;0.00;;;14.20;82.60;;;;;;5088860;28;20242;-23
2023/12/25 09:51:32;;;;;;;0.00;0.00;;;14.30;82.70;;;;;;5089202;28;20309;-23
2023/12/25 09:54:05;;;;;;;0.00;0.00;;;14.30;82.70;;;;;;5090618;28;20573;-24
2023/12/25 09:56:40;;;;;;;0.00;0.00;;;14.30;82.80;;;;;;5087284;28;20285;-24
2023/12/25 09:59:11;;;;;;;0.00;0.00;;;14.30;82.70;;;;;;5088851;28;20190;-24
2023/12/25 10:01:40;;;;;;;0.00;0.00;;;14.30;82.80;;;;;;5086615;28;20219;-23
2023/12/25 10:04:10;;;;;;;0.00;0.00;;;14.30;82.80;;;;;;5086602;28;20206;-24
2023/12/25 10:06:42;;;;;;;0.00;0.00;;;14.30;82.70;;;;;;5067108;28;20839;-24
2023/12/25 10:09:12;;;;;;;0.00;0.00;;;14.30;82.70;;;;;;5087590;28;20199;-24
2023/12/25 10:11:41;;;;;;;0.00;0.00;;;14.30;82.70;;;;;;5065117;28;20233;-23
2023/12/25 10:14:08;;;;;;;0.00;0.00;;;14.30;82.70;;;;;;5065795;28;20564;-24
2023/12/25 10:16:38;;;;;;;0.00;0.00;;;14.30;82.70;;;;;;5058950;28;20198;-24
2023/12/25 10:19:05;;;;;;;0.00;0.00;;;14.30;82.70;;;;;;5087682;28;20217;-23
2023/12/25 10:21:44;;;;;;;0.00;0.00;;;14.30;82.70;;;;;;5085569;28;20206;-24
2023/12/25 10:24:16;;;;;;;0.00;0.00;;;14.30;82.80;;;;;;5089274;28;20680;-24
2023/12/25 10:26:50;;;;;;;0.00;0.00;;;14.30;82.80;;;;;;5084444;28;20228;-23
2023/12/25 10:29:20;;;;;;;0.00;0.00;;;14.30;82.70;;;;;;5071003;28;20271;-24
2023/12/25 10:31:49;;;;;;;0.00;0.00;;;14.30;82.70;;;;;;5086658;28;20187;-24
2023/12/25 10:34:22;;;;;;;0.00;0.00;;;14.30;82.70;;;;;;5087455;28;20267;-24
2023/12/25 10:36:51;;;;;;;0.00;0.00;;;14.30;82.80;;;;;;5084609;28;20603;-23
2023/12/25 10:39:31;;;;;;;0.00;0.00;;;14.30;82.80;;;;;;5087246;28;20290;-24
2023/12/25 10:42:02;;;;;;;0.00;0.00;;;14.30;82.80;;;;;;5085441;28;20298;-23
2023/12/25 10:44:34;;;;;;;0.00;0.00;;;14.30;82.80;;;;;;5087037;28;20198;-23
2023/12/25 10:47:05;;;;;;;0.00;0.00;;;14.30;82.70;;;;;;5083600;28;20289;-23
2023/12/25 10:49:35;;;;;;;0.00;0.00;;;14.30;82.70;;;;;;5070969;28;20206;-23
2023/12/25 10:52:04;;;;;;;0.00;0.00;;;14.30;82.80;;;;;;5085471;28;20794;-23
2023/12/25 10:54:36;;;;;;;0.00;0.00;;;14.30;82.80;;;;;;5086987;28;20736;-23
2023/12/25 10:57:09;;;;;;;0.00;0.00;;;14.30;82.80;;;;;;5083034;28;20203;-23
2023/12/25 10:59:40;;;;;;;0.00;0.00;;;14.30;82.90;;;;;;5087093;28;20213;-23
2023/12/25 11:02:13;;;;;;;0.00;0.00;;;14.30;82.90;;;;;;5086080;28;20211;-24
2023/12/25 11:04:47;;;;;;;0.00;0.00;;;14.30;82.90;;;;;;5085081;28;20187;-23
2023/12/25 11:07:17;;;;;;;0.00;0.00;;;14.40;83.00;;;;;;5085259;28;20207;-24
2023/12/25 11:09:45;;;;;;;0.00;0.00;;;14.40;83.00;;;;;;5085086;28;20260;-24
2023/12/25 11:12:16;;;;;;;0.00;0.00;;;14.40;83.00;;;;;;5064283;28;20208;-24
2023/12/25 11:14:46;;;;;;;0.00;0.00;;;14.40;83.00;;;;;;5066748;28;20299;-24
2023/12/25 11:17:14;;;;;;;0.00;0.00;;;14.40;83.00;;;;;;5056778;28;20248;-23
2023/12/25 11:19:48;;;;;;;0.00;0.00;;;14.40;83.00;;;;;;5085137;28;20210;-24
2023/12/25 11:22:33;;;;;;;0.00;0.00;;;14.40;83.00;;;;;;5086072;28;20577;-23
2023/12/25 11:25:03;;;;;;;0.00;0.00;;;14.50;83.10;;;;;;5084818;28;20201;-24
2023/12/25 11:27:31;;;;;;;0.00;0.00;;;14.50;83.00;;;;;;5084237;28;20719;-23
2023/12/25 11:30:10;;;;;;;0.00;0.00;;;14.40;83.00;;;;;;5086402;28;20699;-23
2023/12/25 11:32:45;;;;;;;0.00;0.00;;;14.50;83.10;;;;;;5085455;28;20575;-23
2023/12/25 11:35:13;;;;;;;0.00;0.00;;;14.50;83.10;;;;;;5086089;28;20187;-23
2023/12/25 11:37:40;;;;;;;0.00;0.00;;;14.50;83.00;;;;;;5083123;28;20654;-24
2023/12/25 11:40:08;;;;;;;0.00;0.00;;;14.50;83.00;;;;;;5084551;28;20206;-24
2023/12/25 11:42:36;;;;;;;0.00;0.00;;;14.50;82.90;;;;;;5082773;28;21014;-24
2023/12/25 11:45:09;;;;;;;0.00;0.00;;;14.50;82.90;;;;;;5086470;28;20203;-24
2023/12/25 11:47:45;;;;;;;0.00;0.00;;;14.50;83.00;;;;;;5084738;28;20318;-23
2023/12/25 11:50:14;;;;;;;0.00;0.00;;;14.50;83.00;;;;;;5086562;28;20264;-23
2023/12/25 11:52:55;;;;;;;0.00;0.00;;;14.50;83.00;;;;;;5087849;28;20777;-23
2023/12/25 11:55:24;;;;;;;0.00;0.00;;;14.50;83.00;;;;;;5084127;28;20691;-24
2023/12/25 11:57:51;;;;;;;0.00;0.00;;;14.50;83.00;;;;;;5082314;28;20203;-24
2023/12/25 12:00:33;;;;;;;0.00;0.00;;;14.50;83.00;;;;;;5085768;28;20693;-24
2023/12/25 12:03:03;;;;;;;0.00;0.00;;;14.50;83.00;;;;;;5087583;28;20237;-24
2023/12/25 12:05:35;;;;;;;0.00;0.00;;;14.50;82.90;;;;;;5086874;28;20231;-24
2023/12/25 12:08:09;;;;;;;0.00;0.00;;;14.50;82.90;;;;;;5084706;28;20695;-24
2023/12/25 12:10:42;;;;;;;0.00;0.00;;;14.50;83.00;;;;;;5083957;28;20491;-41
2023/12/25 12:13:12;;;;;;;0.00;0.00;;;14.50;83.00;;;;;;5085385;28;20210;-42
2023/12/25 12:15:42;;;;;;;0.00;0.00;;;14.50;83.00;;;;;;5083895;28;20191;-42
2023/12/25 12:18:11;;;;;;;0.00;0.00;;;14.50;83.00;;;;;;5087274;28;20202;-42
2023/12/25 12:20:41;;;;;;;0.00;0.00;;;14.50;83.00;;;;;;5083867;28;20191;-41
2023/12/25 12:23:13;;;;;;;0.00;0.00;;;14.50;83.10;;;;;;5080620;28;20214;-42
2023/12/25 12:25:41;;;;;;;0.00;0.00;;;14.50;83.10;;;;;;5084616;28;20610;-43
2023/12/25 12:28:08;;;;;;;0.00;0.00;;;14.50;83.00;;;;;;5085012;28;20702;-42
2023/12/25 12:30:36;;;;;;;0.00;0.00;;;14.50;83.00;;;;;;5083125;28;20229;-41
2023/12/25 12:33:11;;;;;;;0.00;0.00;;;14.50;83.10;;;;;;5081600;28;20190;-41
2023/12/25 12:35:42;;;;;;;0.00;0.00;;;14.50;83.00;;;;;;5085829;28;20583;-41
2023/12/25 12:38:12;;;;;;;0.00;0.00;;;14.50;83.00;;;;;;5069128;28;20201;-42
2023/12/25 12:40:42;;;;;;;0.00;0.00;;;14.50;83.00;;;;;;5083392;28;20573;-42
2023/12/25 12:43:09;;;;;;;0.00;0.00;;;14.50;83.00;;;;;;5082890;28;20201;-42
2023/12/25 12:45:44;;;;;;;0.00;0.00;;;14.50;83.00;;;;;;5086032;28;20205;-43
2023/12/25 12:48:18;;;;;;;0.00;0.00;;;14.50;83.00;;;;;;5086035;28;20321;-42
2023/12/25 12:50:46;;;;;;;0.00;0.00;;;14.50;83.00;;;;;;5084524;28;20221;-42
2023/12/25 12:53:14;;;;;;;0.00;0.00;;;14.50;83.00;;;;;;5083580;28;20210;-40
2023/12/25 12:55:41;;;;;;;0.00;0.00;;;14.50;83.00;;;;;;5083358;28;20234;-40
2023/12/25 12:58:11;;;;;;;0.00;0.00;;;14.50;83.00;;;;;;5083334;28;20194;-41
2023/12/25 13:00:40;;;;;;;0.00;0.00;;;14.50;83.10;;;;;;5085394;28;20293;-42